Time;durP1;ratioP1;P1;durP2;ratioP2;P2;SDS_P1;SDS_P2;PMS_P1;PMS_P2;Temp;Humidity;BMP_temperature;BMP_pressure;BME280_temperature;BME280_humidity;BME280_pressure;Samples;Min_cycle;Max_cycle;Signal;HPM_P1;HPM_P2
2022/12/29 00:00:07;;;;;;;6.53;4.33;;;11.10;99.90;;;;;;5109895;28;20214;-71
2022/12/29 00:02:34;;;;;;;5.67;4.20;;;11.10;99.90;;;;;;5094059;28;20357;-71
2022/12/29 00:05:01;;;;;;;6.07;4.20;;;11.10;99.90;;;;;;5113784;28;20243;-69
2022/12/29 00:07:28;;;;;;;5.23;4.23;;;11.20;99.90;;;;;;5111382;28;20306;-69
2022/12/29 00:09:55;;;;;;;5.63;3.90;;;11.20;99.90;;;;;;5092188;28;20221;-70
2022/12/29 00:12:22;;;;;;;5.30;4.13;;;11.20;99.90;;;;;;5105404;28;20228;-70
2022/12/29 00:17:33;;;;;;;6.57;3.83;;;11.20;99.90;;;;;;5112869;28;20762;-70
2022/12/29 00:36:41;;;;;;;4.80;3.40;;;11.30;99.90;;;;;;5111802;28;20734;-70
2022/12/29 00:44:49;;;;;;;4.53;3.57;;;11.30;99.90;;;;;;5110574;28;20282;-70
2022/12/29 00:47:16;;;;;;;4.77;3.60;;;11.30;99.90;;;;;;5111108;28;20250;-70
2022/12/29 00:49:43;;;;;;;6.00;4.20;;;11.40;99.90;;;;;;5110396;28;20201;-70
2022/12/29 00:52:12;;;;;;;5.20;3.60;;;11.40;99.90;;;;;;5112579;28;20239;-70
2022/12/29 00:54:40;;;;;;;4.87;3.20;;;11.40;99.90;;;;;;5094286;28;20203;-70
2022/12/29 00:57:09;;;;;;;3.97;3.43;;;11.40;99.90;;;;;;5112557;28;20700;-70
2022/12/29 00:59:37;;;;;;;4.50;3.27;;;11.40;99.90;;;;;;5092812;28;20298;-69
2022/12/29 01:02:03;;;;;;;3.80;3.40;;;11.40;99.90;;;;;;5112542;28;20231;-70
2022/12/29 01:04:31;;;;;;;4.87;3.33;;;11.40;99.90;;;;;;5112748;28;20316;-70
2022/12/29 01:06:58;;;;;;;4.03;3.43;;;11.40;99.90;;;;;;5112132;28;20593;-70
2022/12/29 01:12:11;;;;;;;5.50;3.63;;;11.40;99.90;;;;;;5109135;28;20602;-70
2022/12/29 01:14:38;;;;;;;4.40;3.13;;;11.40;99.90;;;;;;5112335;28;20215;-70
2022/12/29 01:17:05;;;;;;;5.03;3.37;;;11.40;99.90;;;;;;5109257;28;20765;-70
2022/12/29 01:19:32;;;;;;;4.07;2.80;;;11.40;99.90;;;;;;5112135;28;20294;-71
2022/12/29 01:21:59;;;;;;;5.27;3.33;;;11.40;99.90;;;;;;5111977;28;20329;-69
2022/12/29 01:24:26;;;;;;;4.33;3.00;;;11.40;99.90;;;;;;5111585;28;20196;-69
2022/12/29 01:26:54;;;;;;;5.43;2.90;;;11.40;99.90;;;;;;5112351;28;20199;-70
2022/12/29 01:29:21;;;;;;;4.43;2.80;;;11.40;99.90;;;;;;5111888;28;20203;-70
2022/12/29 01:31:49;;;;;;;3.00;2.50;;;11.40;99.90;;;;;;5111749;28;20677;-69
2022/12/29 01:34:17;;;;;;;4.07;2.90;;;11.40;99.90;;;;;;5111711;28;20203;-69
2022/12/29 01:36:44;;;;;;;3.60;2.63;;;11.40;99.90;;;;;;5110001;28;20203;-69
2022/12/29 01:39:10;;;;;;;4.07;2.63;;;11.40;99.90;;;;;;5103060;28;20234;-69
2022/12/29 01:41:37;;;;;;;2.87;2.63;;;11.40;99.90;;;;;;5110975;28;20227;-69
2022/12/29 01:44:42;;;;;;;4.90;2.50;;;11.40;99.90;;;;;;5111895;28;20218;-70
2022/12/29 01:47:09;;;;;;;3.10;2.67;;;11.40;99.90;;;;;;5103166;28;20612;-69
2022/12/29 01:49:36;;;;;;;3.10;2.27;;;11.40;99.90;;;;;;5111381;28;20584;-69
2022/12/29 01:52:06;;;;;;;2.40;2.20;;;11.40;99.90;;;;;;5111783;28;20215;-69
2022/12/29 01:54:32;;;;;;;5.07;2.40;;;11.30;99.90;;;;;;5109593;28;20583;-69
2022/12/29 01:57:03;;;;;;;4.20;2.43;;;11.30;99.90;;;;;;5111248;28;20195;-69
2022/12/29 01:59:37;;;;;;;3.60;2.40;;;11.30;99.90;;;;;;5093484;28;20636;-69
2022/12/29 02:02:05;;;;;;;2.90;2.20;;;11.20;99.90;;;;;;5107429;28;20236;-69
2022/12/29 02:04:34;;;;;;;3.87;2.10;;;11.20;99.90;;;;;;5109737;28;20199;-70
2022/12/29 02:07:06;;;;;;;3.73;2.30;;;11.20;99.90;;;;;;5106111;28;20222;-69
2022/12/29 02:09:33;;;;;;;3.53;2.30;;;11.20;99.90;;;;;;5109457;28;20302;-69
2022/12/29 02:12:01;;;;;;;3.30;2.07;;;11.20;99.90;;;;;;5107631;28;20195;-69
2022/12/29 02:14:28;;;;;;;4.33;1.97;;;11.20;99.90;;;;;;5109872;28;20203;-69
2022/12/29 02:17:01;;;;;;;3.03;1.97;;;11.20;99.90;;;;;;5110585;28;20203;-70
2022/12/29 02:19:45;;;;;;;3.63;2.03;;;11.20;99.90;;;;;;5107899;28;20294;-69
2022/12/29 02:22:18;;;;;;;3.27;2.10;;;11.20;99.90;;;;;;5108615;28;20233;-69
2022/12/29 02:25:26;;;;;;;1.90;1.80;;;11.20;99.90;;;;;;5108312;28;20722;-69
2022/12/29 02:28:15;;;;;;;3.37;2.10;;;11.10;99.90;;;;;;5106498;28;20211;-70
2022/12/29 02:31:08;;;;;;;3.67;1.90;;;11.10;99.90;;;;;;5110275;28;20563;-70
2022/12/29 02:34:00;;;;;;;3.10;2.10;;;11.10;99.90;;;;;;5109846;28;20601;-71
2022/12/29 02:36:52;;;;;;;4.70;2.27;;;11.10;99.90;;;;;;5109312;28;20235;-70
2022/12/29 02:39:37;;;;;;;3.40;2.30;;;11.10;99.90;;;;;;5092924;28;20305;-70
2022/12/29 02:42:23;;;;;;;2.57;2.10;;;11.10;99.90;;;;;;5106455;28;20330;-70
2022/12/29 02:44:55;;;;;;;7.43;2.70;;;11.10;99.90;;;;;;5110493;28;20584;-70
2022/12/29 02:47:28;;;;;;;2.73;1.90;;;11.00;99.90;;;;;;5077946;28;20667;-70
2022/12/29 02:50:06;;;;;;;2.40;2.03;;;11.00;99.90;;;;;;5105528;28;20213;-70
2022/12/29 02:52:46;;;;;;;3.33;1.90;;;11.10;99.90;;;;;;5092570;28;20654;-71
2022/12/29 02:55:13;;;;;;;3.50;1.80;;;11.00;99.90;;;;;;5110812;28;20302;-70
2022/12/29 02:57:40;;;;;;;1.80;1.60;;;11.00;99.90;;;;;;5107723;28;20233;-69
2022/12/29 03:00:11;;;;;;;2.47;1.60;;;11.00;99.90;;;;;;5088165;28;20568;-70
2022/12/29 03:03:07;;;;;;;4.07;1.90;;;11.00;99.90;;;;;;5109250;28;20360;-70
2022/12/29 03:05:58;;;;;;;1.70;1.10;;;11.00;99.90;;;;;;5109674;28;20268;-69
2022/12/29 03:08:33;;;;;;;5.73;1.63;;;11.10;99.90;;;;;;5110271;28;20347;-70
2022/12/29 03:11:04;;;;;;;3.73;1.57;;;11.10;99.90;;;;;;5110422;28;20552;-69
2022/12/29 03:16:34;;;;;;;2.70;1.33;;;11.20;99.90;;;;;;5106639;28;20237;-70
2022/12/29 03:19:24;;;;;;;2.40;1.20;;;11.20;99.90;;;;;;5109175;28;20207;-70
2022/12/29 03:25:04;;;;;;;0.90;0.87;;;11.20;99.90;;;;;;5108774;28;20282;-70
2022/12/29 03:27:36;;;;;;;2.40;0.87;;;11.20;99.90;;;;;;5110592;28;20195;-69
2022/12/29 03:30:05;;;;;;;2.93;1.17;;;11.20;99.90;;;;;;5106920;28;20199;-70
2022/12/29 03:32:40;;;;;;;3.43;1.33;;;11.10;99.90;;;;;;5110963;28;20276;-70
2022/12/29 03:35:11;;;;;;;4.57;1.30;;;11.10;99.90;;;;;;5106177;28;20743;-70
2022/12/29 03:37:43;;;;;;;3.50;1.13;;;11.10;99.90;;;;;;5112266;28;20309;-70
2022/12/29 03:40:10;;;;;;;2.87;1.20;;;11.10;99.90;;;;;;5112076;28;20675;-69
2022/12/29 03:42:39;;;;;;;2.20;1.27;;;11.10;99.90;;;;;;5113244;28;20227;-69
2022/12/29 03:45:07;;;;;;;1.60;1.50;;;11.00;99.90;;;;;;5114111;28;20467;-71
2022/12/29 03:47:34;;;;;;;3.63;1.40;;;11.00;99.90;;;;;;5095896;28;20214;-69
2022/12/29 03:50:00;;;;;;;1.57;1.30;;;11.00;99.90;;;;;;5095591;28;20231;-70
2022/12/29 03:52:27;;;;;;;2.07;1.33;;;11.00;99.90;;;;;;5095090;28;20227;-70
2022/12/29 03:54:55;;;;;;;2.40;1.40;;;10.90;99.90;;;;;;5109730;28;20183;-71
2022/12/29 03:57:21;;;;;;;4.87;1.57;;;10.90;99.90;;;;;;5110371;28;20659;-69
2022/12/29 03:59:48;;;;;;;2.87;1.20;;;10.90;99.90;;;;;;5112186;28;20196;-70
2022/12/29 04:02:15;;;;;;;4.10;1.50;;;10.90;99.90;;;;;;5113355;28;20317;-70
2022/12/29 04:04:44;;;;;;;4.93;1.47;;;10.90;99.90;;;;;;5095736;28;20210;-70
2022/12/29 04:07:10;;;;;;;6.17;1.60;;;10.90;99.90;;;;;;5113659;28;20235;-70
2022/12/29 04:09:37;;;;;;;3.87;1.30;;;10.90;99.90;;;;;;5112198;28;20188;-70
2022/12/29 04:12:04;;;;;;;3.30;1.57;;;10.90;99.90;;;;;;5113305;28;20199;-70
2022/12/29 04:14:31;;;;;;;1.57;1.20;;;10.90;99.90;;;;;;5113808;28;20360;-69
2022/12/29 04:16:58;;;;;;;4.13;1.43;;;11.00;99.90;;;;;;5113660;28;20539;-68
2022/12/29 04:19:24;;;;;;;2.90;1.50;;;11.00;99.90;;;;;;5111080;28;20290;-69
2022/12/29 04:21:51;;;;;;;5.00;1.53;;;11.00;99.90;;;;;;5112412;28;20215;-70
2022/12/29 04:24:18;;;;;;;4.43;1.60;;;11.00;99.90;;;;;;5113494;28;20202;-69
2022/12/29 04:26:44;;;;;;;2.07;1.57;;;11.00;99.90;;;;;;5113081;28;20202;-68
2022/12/29 04:29:11;;;;;;;3.47;1.43;;;11.00;99.90;;;;;;5109456;28;20195;-69
2022/12/29 04:31:38;;;;;;;2.87;1.60;;;11.00;99.90;;;;;;5111086;28;20226;-69
2022/12/29 04:34:05;;;;;;;5.50;1.43;;;11.10;99.90;;;;;;5095460;28;20199;-70
2022/12/29 04:36:31;;;;;;;4.43;1.70;;;11.10;99.90;;;;;;5109889;28;20643;-70
2022/12/29 04:38:58;;;;;;;3.60;1.63;;;11.10;99.90;;;;;;5113251;28;20302;-70
2022/12/29 04:41:25;;;;;;;6.80;1.77;;;11.10;99.90;;;;;;5112593;28;20243;-70
2022/12/29 04:43:52;;;;;;;3.93;1.80;;;11.10;99.90;;;;;;5071562;28;20247;-70
2022/12/29 04:46:19;;;;;;;5.80;1.80;;;11.00;99.90;;;;;;5070665;28;20236;-70
2022/12/29 04:48:46;;;;;;;3.97;1.50;;;11.00;99.90;;;;;;5067708;28;20265;-69
2022/12/29 04:51:13;;;;;;;4.10;1.40;;;11.10;99.90;;;;;;5071056;28;20652;-70
2022/12/29 04:53:39;;;;;;;8.43;2.13;;;11.00;99.90;;;;;;5072056;28;20216;-70
2022/12/29 04:56:07;;;;;;;4.17;1.80;;;11.00;99.90;;;;;;5071666;28;20243;-69
2022/12/29 04:58:33;;;;;;;5.93;2.23;;;11.10;99.90;;;;;;5071795;28;20303;-70
2022/12/29 05:01:00;;;;;;;9.43;2.17;;;11.10;99.90;;;;;;5071987;28;20208;-69
2022/12/29 05:03:27;;;;;;;2.70;1.60;;;11.00;99.90;;;;;;5064057;28;20648;-70
2022/12/29 05:05:55;;;;;;;4.17;1.57;;;11.00;99.90;;;;;;5072202;28;20208;-69
2022/12/29 05:08:22;;;;;;;4.97;1.90;;;10.90;99.90;;;;;;5071919;28;20224;-69
2022/12/29 05:10:54;;;;;;;8.33;2.00;;;10.90;99.90;;;;;;5072313;28;20200;-70
2022/12/29 05:13:20;;;;;;;2.83;1.57;;;10.80;99.90;;;;;;5070678;28;20232;-71
2022/12/29 05:15:50;;;;;;;4.73;1.60;;;10.90;99.90;;;;;;5070351;28;20262;-69
2022/12/29 05:18:18;;;;;;;6.67;1.90;;;10.80;99.90;;;;;;5071144;28;20672;-69
2022/12/29 05:20:45;;;;;;;5.77;1.50;;;10.80;99.90;;;;;;5071685;28;20235;-69
2022/12/29 05:23:12;;;;;;;7.53;1.57;;;10.80;99.90;;;;;;5070221;28;20255;-70
2022/12/29 05:25:39;;;;;;;7.90;1.83;;;10.80;99.90;;;;;;5070126;28;20227;-70
2022/12/29 05:28:05;;;;;;;5.13;1.50;;;10.70;99.90;;;;;;5067706;28;20271;-70
2022/12/29 05:30:33;;;;;;;7.80;1.87;;;10.70;99.90;;;;;;5065699;28;20240;-70
2022/12/29 05:32:59;;;;;;;5.00;1.40;;;10.70;99.90;;;;;;5068846;28;20196;-70
2022/12/29 05:35:26;;;;;;;7.97;1.73;;;10.70;99.90;;;;;;5071615;28;20205;-70
2022/12/29 05:37:53;;;;;;;8.07;1.60;;;10.70;99.90;;;;;;5070849;28;20710;-70
2022/12/29 05:40:20;;;;;;;9.27;1.50;;;10.70;99.90;;;;;;5070310;28;20283;-70
2022/12/29 05:42:46;;;;;;;10.00;1.83;;;10.80;99.90;;;;;;5093746;28;20269;-70
2022/12/29 05:45:13;;;;;;;10.77;1.77;;;10.70;99.90;;;;;;5087480;28;20192;-70
2022/12/29 05:47:40;;;;;;;7.00;1.37;;;10.80;99.90;;;;;;5091349;28;20740;-70
2022/12/29 05:50:07;;;;;;;9.70;1.80;;;10.80;99.90;;;;;;5090467;28;20299;-70
2022/12/29 05:52:34;;;;;;;8.70;1.77;;;10.70;99.90;;;;;;5089381;28;20295;-69
2022/12/29 05:55:00;;;;;;;7.63;1.90;;;10.60;99.90;;;;;;5088415;28;20206;-70
2022/12/29 05:57:27;;;;;;;12.33;2.23;;;10.60;99.90;;;;;;5087054;28;20207;-68
2022/12/29 05:59:54;;;;;;;8.93;1.83;;;10.60;99.90;;;;;;5087350;28;20224;-70
2022/12/29 06:02:20;;;;;;;7.70;2.00;;;10.60;99.90;;;;;;5089869;28;21004;-70
2022/12/29 06:04:47;;;;;;;5.80;1.50;;;10.60;99.90;;;;;;5084076;28;20199;-69
2022/12/29 06:07:14;;;;;;;8.80;1.80;;;10.60;99.90;;;;;;5084399;28;20207;-69
2022/12/29 06:09:41;;;;;;;6.37;2.30;;;10.60;99.90;;;;;;5080941;28;20648;-69
2022/12/29 06:12:08;;;;;;;9.70;2.10;;;10.60;99.90;;;;;;5084794;28;20223;-69
2022/12/29 06:14:34;;;;;;;6.50;2.13;;;10.70;99.90;;;;;;5075511;28;20287;-69
2022/12/29 06:17:01;;;;;;;10.57;1.53;;;10.70;99.90;;;;;;5078084;28;20303;-69
2022/12/29 06:19:28;;;;;;;8.90;1.83;;;10.70;99.90;;;;;;5084885;28;20230;-69
2022/12/29 06:21:55;;;;;;;8.43;1.60;;;10.60;99.90;;;;;;5085110;28;20239;-69
2022/12/29 06:24:22;;;;;;;7.90;1.70;;;10.70;99.90;;;;;;5083613;28;20219;-70
2022/12/29 06:26:48;;;;;;;7.97;1.90;;;10.60;99.90;;;;;;5085419;28;20731;-69
2022/12/29 06:29:16;;;;;;;7.77;1.70;;;10.60;99.90;;;;;;5088773;28;20257;-69
2022/12/29 06:31:48;;;;;;;7.43;2.33;;;10.60;99.90;;;;;;5077995;28;20322;-69
2022/12/29 06:34:15;;;;;;;10.27;2.17;;;10.60;99.90;;;;;;5081395;28;20200;-69
2022/12/29 06:36:42;;;;;;;8.73;1.97;;;10.60;99.90;;;;;;5085111;28;20196;-68
2022/12/29 06:39:10;;;;;;;9.83;2.70;;;10.50;99.90;;;;;;5084140;28;20219;-69
2022/12/29 06:41:37;;;;;;;7.13;2.90;;;10.60;99.90;;;;;;5083210;28;20223;-70
2022/12/29 06:44:04;;;;;;;8.93;2.40;;;10.60;99.90;;;;;;5102082;28;20223;-70
2022/12/29 06:46:31;;;;;;;5.77;1.77;;;10.60;99.90;;;;;;5105099;28;20253;-70
2022/12/29 06:48:58;;;;;;;5.80;1.80;;;10.50;99.90;;;;;;5106907;28;20206;-70
2022/12/29 06:51:24;;;;;;;5.77;1.87;;;10.50;99.90;;;;;;5106175;28;20214;-70
2022/12/29 06:53:51;;;;;;;9.37;1.97;;;10.40;99.90;;;;;;5106536;28;20276;-70
2022/12/29 06:56:18;;;;;;;7.87;2.07;;;10.40;99.90;;;;;;5062367;28;20203;-70
2022/12/29 06:58:45;;;;;;;10.13;1.60;;;10.30;99.90;;;;;;5091194;28;20205;-70
2022/12/29 07:01:11;;;;;;;8.47;2.50;;;10.20;99.90;;;;;;5105650;28;20294;-69
2022/12/29 07:03:41;;;;;;;9.37;3.30;;;10.20;99.90;;;;;;5101799;28;20613;-69
2022/12/29 07:06:08;;;;;;;7.97;2.30;;;10.10;99.90;;;;;;5103071;28;20219;-70
2022/12/29 07:08:35;;;;;;;10.13;2.33;;;10.10;99.90;;;;;;5104721;28;20306;-71
2022/12/29 07:11:01;;;;;;;10.87;2.30;;;10.00;99.90;;;;;;5088894;28;20697;-70
2022/12/29 07:13:28;;;;;;;7.13;2.10;;;10.00;99.90;;;;;;5110767;28;20199;-70
2022/12/29 07:15:55;;;;;;;9.40;3.10;;;10.00;99.90;;;;;;5108587;28;20585;-70
2022/12/29 07:18:22;;;;;;;9.37;2.63;;;10.00;99.90;;;;;;5110054;28;20203;-71
2022/12/29 07:20:48;;;;;;;6.67;2.20;;;10.00;99.90;;;;;;5101877;28;20199;-70
2022/12/29 07:23:15;;;;;;;10.17;2.10;;;9.90;99.90;;;;;;5100846;28;20308;-69
2022/12/29 07:25:42;;;;;;;8.37;2.00;;;10.00;99.90;;;;;;5102058;28;20283;-69
2022/12/29 07:28:09;;;;;;;13.17;2.27;;;9.90;99.90;;;;;;5102688;28;20230;-69
2022/12/29 07:30:37;;;;;;;7.60;1.80;;;9.90;99.90;;;;;;5100032;28;20286;-69
2022/12/29 07:33:04;;;;;;;7.93;1.83;;;9.90;99.90;;;;;;5101423;28;20290;-70
2022/12/29 07:35:30;;;;;;;10.77;2.53;;;10.00;99.90;;;;;;5106180;28;20670;-69
2022/12/29 07:37:57;;;;;;;6.77;1.60;;;9.90;99.90;;;;;;5097248;28;20727;-70
2022/12/29 07:40:24;;;;;;;6.17;1.70;;;9.90;99.90;;;;;;5098765;28;20207;-70
2022/12/29 07:42:51;;;;;;;7.50;2.00;;;9.80;99.90;;;;;;5095487;28;20786;-68
2022/12/29 07:45:17;;;;;;;7.23;1.60;;;9.70;99.90;;;;;;5100410;28;20846;-70
2022/12/29 07:47:48;;;;;;;7.83;1.83;;;9.70;99.90;;;;;;5082815;28;20288;-71
2022/12/29 07:50:15;;;;;;;9.53;2.10;;;9.60;99.90;;;;;;5081493;28;20283;-70
2022/12/29 07:52:42;;;;;;;12.10;2.60;;;9.50;99.90;;;;;;5103398;28;20320;-68
2022/12/29 07:55:09;;;;;;;10.53;2.17;;;9.40;99.90;;;;;;5107966;28;20595;-70
2022/12/29 07:57:36;;;;;;;9.17;2.10;;;9.40;99.90;;;;;;5102395;28;20196;-70
2022/12/29 08:00:03;;;;;;;8.70;2.27;;;9.30;99.90;;;;;;5097537;28;20651;-70
2022/12/29 08:02:30;;;;;;;9.10;2.50;;;9.20;99.90;;;;;;5082894;28;20205;-72
2022/12/29 08:04:57;;;;;;;8.13;2.83;;;9.20;99.90;;;;;;5100758;28;20238;-70
2022/12/29 08:07:23;;;;;;;6.63;2.50;;;9.20;99.90;;;;;;5101683;28;20298;-70
2022/12/29 08:09:50;;;;;;;14.27;2.90;;;9.10;99.90;;;;;;5100803;28;20663;-70
2022/12/29 08:12:17;;;;;;;11.07;3.23;;;9.10;99.90;;;;;;5103255;28;20222;-70
2022/12/29 08:14:44;;;;;;;8.53;2.63;;;9.10;99.90;;;;;;5101602;28;20694;-71
2022/12/29 08:17:11;;;;;;;6.50;2.30;;;9.00;99.90;;;;;;5101534;28;20277;-70
2022/12/29 08:19:38;;;;;;;11.80;2.70;;;9.10;99.90;;;;;;5110335;28;20203;-70
2022/12/29 08:22:04;;;;;;;13.47;2.93;;;9.10;99.90;;;;;;5111281;28;20264;-70
2022/12/29 08:24:31;;;;;;;8.57;2.70;;;9.10;99.90;;;;;;5087986;28;20211;-71
2022/12/29 08:26:58;;;;;;;8.50;2.53;;;9.20;99.90;;;;;;5101787;28;20279;-71
2022/12/29 08:29:32;;;;;;;5.43;2.57;;;9.30;99.90;;;;;;5109719;28;20317;-71
2022/12/29 08:31:59;;;;;;;12.07;3.13;;;9.30;99.90;;;;;;5106317;28;20201;-72
2022/12/29 08:34:26;;;;;;;5.93;2.90;;;9.40;99.90;;;;;;5095040;28;20301;-71
2022/12/29 08:36:52;;;;;;;9.87;2.53;;;9.40;99.90;;;;;;5101932;28;20305;-71
2022/12/29 08:39:19;;;;;;;12.90;2.80;;;9.40;99.90;;;;;;5080845;28;20243;-71
2022/12/29 08:41:46;;;;;;;8.47;2.50;;;9.40;99.90;;;;;;5106733;28;20196;-71
2022/12/29 08:44:13;;;;;;;7.57;2.20;;;9.40;99.90;;;;;;5108774;28;20737;-71
2022/12/29 08:46:39;;;;;;;15.00;3.07;;;9.50;99.90;;;;;;5110054;28;20245;-70
2022/12/29 08:49:06;;;;;;;7.50;2.67;;;9.60;99.90;;;;;;5106318;28;20199;-70
2022/12/29 08:51:33;;;;;;;7.77;2.27;;;9.50;99.90;;;;;;5108875;28;20203;-70
2022/12/29 08:54:00;;;;;;;7.97;2.80;;;9.50;99.90;;;;;;5107406;28;20250;-70
2022/12/29 08:56:27;;;;;;;11.57;3.60;;;9.60;99.90;;;;;;5091909;28;20224;-70
2022/12/29 08:58:54;;;;;;;8.77;3.00;;;9.60;99.90;;;;;;5105902;28;20664;-70
2022/12/29 09:01:21;;;;;;;11.07;2.10;;;9.70;99.90;;;;;;5088597;28;20697;-70
2022/12/29 09:03:49;;;;;;;9.77;2.73;;;9.70;99.90;;;;;;5106271;28;20580;-70
2022/12/29 09:06:36;;;;;;;7.47;2.40;;;9.80;99.90;;;;;;5107784;28;20212;-70
2022/12/29 09:09:06;;;;;;;15.33;2.57;;;9.80;99.90;;;;;;5108529;28;20278;-70
2022/12/29 09:11:33;;;;;;;8.67;2.20;;;9.80;99.90;;;;;;5088848;28;20188;-70
2022/12/29 09:14:00;;;;;;;8.23;2.23;;;9.90;99.90;;;;;;5107625;28;20712;-71
2022/12/29 09:16:27;;;;;;;13.07;2.93;;;9.90;99.90;;;;;;5109814;28;20254;-70
2022/12/29 09:18:54;;;;;;;11.40;2.17;;;10.00;99.90;;;;;;5075695;28;20210;-71
2022/12/29 09:21:21;;;;;;;6.87;1.70;;;10.00;99.90;;;;;;5105036;28;20192;-70
2022/12/29 09:23:48;;;;;;;12.27;2.93;;;10.00;99.90;;;;;;5103355;28;20223;-69
2022/12/29 09:26:15;;;;;;;11.47;2.17;;;10.00;99.90;;;;;;5103614;28;20206;-69
2022/12/29 09:28:42;;;;;;;16.73;2.27;;;10.00;99.90;;;;;;5105430;28;20293;-69
2022/12/29 09:31:08;;;;;;;12.60;2.37;;;10.00;99.90;;;;;;5108137;28;20211;-69
2022/12/29 09:33:35;;;;;;;10.97;2.20;;;10.00;99.90;;;;;;5106236;28;20200;-68
2022/12/29 09:36:03;;;;;;;9.33;1.77;;;10.00;99.90;;;;;;5105978;28;20275;-68
2022/12/29 09:38:30;;;;;;;10.40;2.00;;;10.00;99.90;;;;;;5106257;28;20215;-69
2022/12/29 09:41:06;;;;;;;11.63;2.10;;;10.00;99.90;;;;;;5086385;28;20752;-70
2022/12/29 09:43:57;;;;;;;12.67;2.53;;;10.00;99.90;;;;;;5104009;27;20249;-70
2022/12/29 09:46:32;;;;;;;9.83;1.80;;;10.10;99.90;;;;;;5102613;28;20199;-70
2022/12/29 09:49:20;;;;;;;13.43;2.40;;;10.10;99.90;;;;;;5107008;28;20199;-70
2022/12/29 09:51:53;;;;;;;7.57;2.43;;;10.10;99.90;;;;;;5081729;28;20235;-69
2022/12/29 09:54:30;;;;;;;10.90;2.37;;;10.20;99.90;;;;;;5087662;28;20196;-70
2022/12/29 09:56:58;;;;;;;12.20;2.83;;;10.20;99.90;;;;;;5082668;28;20679;-70
2022/12/29 09:59:37;;;;;;;5.83;2.43;;;10.20;99.90;;;;;;5106317;28;20274;-71
2022/12/29 10:02:20;;;;;;;8.33;1.77;;;10.20;99.90;;;;;;5099482;28;20199;-71
2022/12/29 10:04:47;;;;;;;9.53;2.57;;;10.20;99.90;;;;;;5101033;28;20219;-70
2022/12/29 10:07:27;;;;;;;10.50;2.10;;;10.10;99.90;;;;;;5107747;28;20237;-70
2022/12/29 10:10:17;;;;;;;8.13;1.93;;;10.20;99.90;;;;;;5102478;28;20207;-70
2022/12/29 10:13:23;;;;;;;8.03;2.50;;;10.10;99.90;;;;;;5106767;28;20245;-70
2022/12/29 10:16:11;;;;;;;9.27;2.20;;;10.10;99.90;;;;;;5105725;28;20214;-71
2022/12/29 10:19:00;;;;;;;18.27;3.33;;;10.00;99.90;;;;;;5107977;28;20219;-70
2022/12/29 10:22:05;;;;;;;11.03;2.20;;;10.00;99.90;;;;;;5080924;28;20291;-69
2022/12/29 10:24:37;;;;;;;9.20;2.20;;;10.00;99.90;;;;;;5082582;28;20881;-70
2022/12/29 10:27:10;;;;;;;9.27;2.20;;;9.90;99.90;;;;;;5096449;28;20751;-70
2022/12/29 10:29:45;;;;;;;9.60;2.50;;;9.90;99.90;;;;;;5102095;28;21296;-70
2022/12/29 10:32:39;;;;;;;10.43;2.97;;;9.90;99.90;;;;;;5083801;28;20218;-71
2022/12/29 10:35:14;;;;;;;12.47;2.20;;;9.90;99.90;;;;;;5105490;28;20207;-71
2022/12/29 10:37:40;;;;;;;7.40;2.27;;;9.90;99.90;;;;;;5108597;28;20214;-71
2022/12/29 10:40:40;;;;;;;9.77;3.23;;;10.00;99.90;;;;;;5086101;28;20195;-72
2022/12/29 10:43:17;;;;;;;10.23;2.50;;;10.00;99.90;;;;;;5102845;28;20223;-70
2022/12/29 10:45:48;;;;;;;7.93;2.50;;;9.90;99.90;;;;;;5105428;28;20565;-70
2022/12/29 10:48:24;;;;;;;12.23;2.30;;;9.90;99.90;;;;;;5108276;28;20209;-70
2022/12/29 10:50:59;;;;;;;6.23;2.50;;;9.90;99.90;;;;;;5102340;28;20203;-70
2022/12/29 10:53:38;;;;;;;11.37;2.37;;;9.80;99.90;;;;;;5107306;28;20594;-71
2022/12/29 10:56:14;;;;;;;10.30;2.60;;;9.80;99.90;;;;;;5101645;28;20655;-71
2022/12/29 10:58:45;;;;;;;8.90;2.90;;;9.80;99.90;;;;;;5103386;28;20255;-70
2022/12/29 11:01:17;;;;;;;5.57;2.33;;;9.90;99.90;;;;;;5106236;28;20545;-70
2022/12/29 11:04:24;;;;;;;6.70;2.60;;;9.80;99.90;;;;;;5106772;28;20257;-70
2022/12/29 11:06:51;;;;;;;14.33;2.70;;;9.80;99.90;;;;;;5076819;28;20252;-71
2022/12/29 11:09:34;;;;;;;10.13;2.67;;;9.90;99.90;;;;;;5101262;28;20206;-70
2022/12/29 11:12:20;;;;;;;9.47;3.10;;;9.80;99.90;;;;;;5087800;28;20290;-71
2022/12/29 11:15:00;;;;;;;11.43;3.10;;;9.90;99.90;;;;;;5102256;28;20212;-71
2022/12/29 11:17:26;;;;;;;10.53;2.70;;;9.90;99.90;;;;;;5102727;28;20191;-70
2022/12/29 11:19:54;;;;;;;11.10;2.63;;;10.00;99.90;;;;;;5105923;28;20230;-71
2022/12/29 11:22:27;;;;;;;12.90;3.53;;;9.80;99.90;;;;;;5087210;28;20730;-70
2022/12/29 11:25:04;;;;;;;7.63;3.27;;;10.00;99.90;;;;;;5101808;28;20223;-71
2022/12/29 11:27:32;;;;;;;12.20;2.90;;;10.00;99.90;;;;;;5105905;28;20230;-71
2022/12/29 11:29:59;;;;;;;14.80;3.90;;;10.00;99.90;;;;;;5109716;28;20226;-70
2022/12/29 11:32:29;;;;;;;8.63;3.30;;;10.00;99.90;;;;;;5101758;28;20287;-71
2022/12/29 11:34:58;;;;;;;9.57;3.10;;;10.00;99.90;;;;;;5086657;28;20252;-70
2022/12/29 11:37:38;;;;;;;11.33;3.37;;;10.00;99.90;;;;;;5101655;28;20759;-70
2022/12/29 11:40:15;;;;;;;11.30;4.10;;;10.00;99.90;;;;;;5084516;28;20584;-70
2022/12/29 11:43:02;;;;;;;15.17;4.03;;;10.00;99.90;;;;;;5105440;28;20309;-69
2022/12/29 11:45:34;;;;;;;11.17;4.10;;;10.00;99.90;;;;;;5079505;28;20250;-70
2022/12/29 11:48:07;;;;;;;13.33;3.90;;;9.90;99.90;;;;;;5105532;28;20290;-70
2022/12/29 11:50:38;;;;;;;16.20;4.20;;;9.90;99.90;;;;;;5081682;28;20400;-70
2022/12/29 11:53:07;;;;;;;11.37;3.80;;;9.90;99.90;;;;;;5106251;28;20207;-71
2022/12/29 11:55:34;;;;;;;13.87;3.73;;;10.00;99.90;;;;;;5110070;28;20282;-70
2022/12/29 11:58:04;;;;;;;15.60;4.50;;;10.00;99.90;;;;;;5103912;28;20281;-70
2022/12/29 12:00:34;;;;;;;15.00;4.20;;;10.10;99.90;;;;;;5110539;28;20641;-70
2022/12/29 12:03:04;;;;;;;13.07;4.23;;;10.10;99.90;;;;;;5107645;28;20202;-70
2022/12/29 12:05:52;;;;;;;12.37;4.40;;;10.10;99.90;;;;;;5109103;28;20702;-69
2022/12/29 12:08:37;;;;;;;11.43;3.93;;;10.10;99.90;;;;;;5107487;28;20214;-71
2022/12/29 12:11:33;;;;;;;14.57;3.90;;;10.00;99.90;;;;;;5087559;28;20248;-70
2022/12/29 12:14:02;;;;;;;18.40;5.37;;;10.00;99.90;;;;;;5089407;28;20207;-70
2022/12/29 12:16:39;;;;;;;17.07;5.00;;;10.00;99.90;;;;;;5109072;28;20644;-70
2022/12/29 12:19:09;;;;;;;14.13;4.80;;;10.00;99.90;;;;;;5104353;28;20199;-71
2022/12/29 12:21:41;;;;;;;16.67;4.30;;;10.00;99.90;;;;;;5108534;28;20660;-71
2022/12/29 12:24:30;;;;;;;13.53;4.50;;;9.90;99.90;;;;;;5093121;28;20762;-71
2022/12/29 12:26:59;;;;;;;8.60;3.60;;;9.90;99.90;;;;;;5087928;28;20207;-71
2022/12/29 12:29:36;;;;;;;19.47;4.77;;;9.90;99.90;;;;;;5102546;28;20857;-71
2022/12/29 12:32:29;;;;;;;11.37;3.90;;;9.90;99.90;;;;;;5105739;28;20210;-71
2022/12/29 12:34:55;;;;;;;15.80;4.17;;;9.90;99.90;;;;;;5104393;28;20199;-71
2022/12/29 12:37:45;;;;;;;14.67;3.60;;;9.90;99.90;;;;;;5105433;28;20748;-71
2022/12/29 12:40:29;;;;;;;13.47;3.10;;;10.00;99.90;;;;;;5109068;28;20278;-71
2022/12/29 12:43:03;;;;;;;12.73;2.97;;;9.90;99.90;;;;;;5107855;28;20730;-71
2022/12/29 12:45:49;;;;;;;11.97;3.00;;;10.00;99.90;;;;;;5091922;28;20254;-70
2022/12/29 12:48:21;;;;;;;10.67;3.50;;;9.90;99.90;;;;;;5108493;28;20571;-70
2022/12/29 12:50:58;;;;;;;11.00;3.00;;;9.90;99.90;;;;;;5107289;28;20199;-69
2022/12/29 12:53:33;;;;;;;12.87;3.20;;;10.00;99.90;;;;;;5104864;28;20262;-70
2022/12/29 12:56:21;;;;;;;17.40;3.97;;;9.90;99.90;;;;;;5091936;28;20198;-70
2022/12/29 12:58:53;;;;;;;15.10;3.80;;;9.90;99.90;;;;;;5106426;28;20239;-70
2022/12/29 13:01:46;;;;;;;14.37;4.03;;;9.90;99.90;;;;;;5092000;28;20551;-71
2022/12/29 13:04:45;;;;;;;13.77;3.87;;;9.90;99.90;;;;;;5092601;28;20633;-71
2022/12/29 13:07:24;;;;;;;15.40;4.47;;;9.90;99.90;;;;;;5086257;28;20296;-71
2022/12/29 13:10:29;;;;;;;14.63;4.40;;;10.00;99.90;;;;;;5105390;28;20195;-69
2022/12/29 13:13:21;;;;;;;11.97;3.90;;;10.00;99.90;;;;;;5090326;28;20293;-70
2022/12/29 13:16:00;;;;;;;20.53;4.30;;;10.00;99.90;;;;;;5104484;28;20207;-71
2022/12/29 13:18:40;;;;;;;20.00;4.23;;;10.00;99.90;;;;;;5106621;28;20199;-70
2022/12/29 13:21:25;;;;;;;13.67;5.03;;;10.10;99.90;;;;;;5108154;28;20675;-70
2022/12/29 13:24:19;;;;;;;13.80;4.63;;;10.10;99.90;;;;;;5101505;28;20238;-70
2022/12/29 13:27:05;;;;;;;17.73;4.73;;;10.10;99.90;;;;;;5107823;28;20257;-70
2022/12/29 13:29:59;;;;;;;18.77;4.70;;;10.10;99.90;;;;;;5103107;28;20260;-71
2022/12/29 13:32:45;;;;;;;15.53;4.47;;;10.10;99.90;;;;;;5104522;28;20569;-70
2022/12/29 13:35:21;;;;;;;12.40;4.10;;;10.10;99.90;;;;;;5104324;28;20223;-71
2022/12/29 13:38:23;;;;;;;13.17;3.80;;;10.10;99.90;;;;;;5083767;28;20215;-70
2022/12/29 13:40:59;;;;;;;18.53;4.40;;;10.10;99.90;;;;;;5089673;28;20202;-71
2022/12/29 13:43:29;;;;;;;14.57;4.30;;;10.10;99.90;;;;;;5089915;28;20222;-71